sensor_id;sensor_type;location;lat;lon;timestamp;temperature;humidity
40516;DHT22;26216;53.724;9.898;2024-03-17T00:02:24;5.50;99.90
40516;DHT22;26216;53.724;9.898;2024-03-17T00:04:50;5.50;99.90
40516;DHT22;26216;53.724;9.898;2024-03-17T00:07:16;5.50;99.90
40516;DHT22;26216;53.724;9.898;2024-03-17T00:09:41;5.50;99.90
40516;DHT22;26216;53.724;9.898;2024-03-17T00:12:08;5.40;99.90
40516;DHT22;26216;53.724;9.898;2024-03-17T00:14:34;5.40;99.90
40516;DHT22;26216;53.724;9.898;2024-03-17T00:17:01;5.40;99.90
40516;DHT22;26216;53.724;9.898;2024-03-17T00:19:27;5.40;99.90
40516;DHT22;26216;53.724;9.898;2024-03-17T00:21:52;5.30;99.90
40516;DHT22;26216;53.724;9.898;2024-03-17T00:24:19;5.30;99.90
40516;DHT22;26216;53.724;9.898;2024-03-17T00:26:48;5.30;99.90
40516;DHT22;26216;53.724;9.898;2024-03-17T00:29:17;5.30;99.90
40516;DHT22;26216;53.724;9.898;2024-03-17T00:31:43;5.30;99.90
40516;DHT22;26216;53.724;9.898;2024-03-17T00:34:09;5.30;99.90
40516;DHT22;26216;53.724;9.898;2024-03-17T00:36:34;5.30;99.90
40516;DHT22;26216;53.724;9.898;2024-03-17T00:39:00;5.30;99.90
40516;DHT22;26216;53.724;9.898;2024-03-17T00:41:26;5.40;99.90
40516;DHT22;26216;53.724;9.898;2024-03-17T00:43:52;5.40;99.90
40516;DHT22;26216;53.724;9.898;2024-03-17T00:46:21;5.40;99.90
40516;DHT22;26216;53.724;9.898;2024-03-17T00:48:48;5.40;99.90
40516;DHT22;26216;53.724;9.898;2024-03-17T00:51:15;5.50;99.90
40516;DHT22;26216;53.724;9.898;2024-03-17T00:53:40;5.50;99.90
40516;DHT22;26216;53.724;9.898;2024-03-17T00:56:06;5.50;99.90
40516;DHT22;26216;53.724;9.898;2024-03-17T00:58:32;5.60;99.90
40516;DHT22;26216;53.724;9.898;2024-03-17T01:00:58;5.60;99.90
40516;DHT22;26216;53.724;9.898;2024-03-17T01:03:24;5.70;99.90
40516;DHT22;26216;53.724;9.898;2024-03-17T01:05:50;5.70;99.90
40516;DHT22;26216;53.724;9.898;2024-03-17T01:08:21;5.80;99.90
40516;DHT22;26216;53.724;9.898;2024-03-17T01:10:48;5.80;99.90
40516;DHT22;26216;53.724;9.898;2024-03-17T01:13:17;5.80;99.90
40516;DHT22;26216;53.724;9.898;2024-03-17T01:15:44;5.90;99.90
40516;DHT22;26216;53.724;9.898;2024-03-17T01:18:09;5.90;99.90
40516;DHT22;26216;53.724;9.898;2024-03-17T01:20:36;5.90;99.90
40516;DHT22;26216;53.724;9.898;2024-03-17T01:23:06;6.00;99.90
40516;DHT22;26216;53.724;9.898;2024-03-17T01:25:33;6.00;99.90
40516;DHT22;26216;53.724;9.898;2024-03-17T01:28:03;6.00;99.90
40516;DHT22;26216;53.724;9.898;2024-03-17T01:30:30;6.10;99.90
40516;DHT22;26216;53.724;9.898;2024-03-17T01:32:55;6.00;99.90
40516;DHT22;26216;53.724;9.898;2024-03-17T01:35:21;6.10;99.90
40516;DHT22;26216;53.724;9.898;2024-03-17T01:37:48;6.10;99.90
40516;DHT22;26216;53.724;9.898;2024-03-17T01:40:14;6.10;99.90
40516;DHT22;26216;53.724;9.898;2024-03-17T01:42:41;6.10;99.90
40516;DHT22;26216;53.724;9.898;2024-03-17T01:48:32;6.10;99.90
40516;DHT22;26216;53.724;9.898;2024-03-17T01:50:58;6.20;99.90
40516;DHT22;26216;53.724;9.898;2024-03-17T01:53:25;6.20;99.90
40516;DHT22;26216;53.724;9.898;2024-03-17T01:55:53;6.20;99.90
40516;DHT22;26216;53.724;9.898;2024-03-17T01:58:20;6.10;99.90
40516;DHT22;26216;53.724;9.898;2024-03-17T02:00:50;6.20;99.90
40516;DHT22;26216;53.724;9.898;2024-03-17T02:03:17;6.10;99.90
40516;DHT22;26216;53.724;9.898;2024-03-17T02:05:44;6.10;99.90
40516;DHT22;26216;53.724;9.898;2024-03-17T02:08:11;6.20;99.90
40516;DHT22;26216;53.724;9.898;2024-03-17T02:10:37;6.10;99.90
40516;DHT22;26216;53.724;9.898;2024-03-17T02:13:03;6.10;99.90
40516;DHT22;26216;53.724;9.898;2024-03-17T02:15:33;6.10;99.90
40516;DHT22;26216;53.724;9.898;2024-03-17T02:17:59;6.10;99.90
40516;DHT22;26216;53.724;9.898;2024-03-17T02:20:25;6.10;99.90
40516;DHT22;26216;53.724;9.898;2024-03-17T02:23:11;6.10;99.90
40516;DHT22;26216;53.724;9.898;2024-03-17T02:25:37;6.10;99.90
40516;DHT22;26216;53.724;9.898;2024-03-17T02:28:03;6.10;99.90
40516;DHT22;26216;53.724;9.898;2024-03-17T02:30:30;6.10;99.90
40516;DHT22;26216;53.724;9.898;2024-03-17T02:32:56;6.10;99.90
40516;DHT22;26216;53.724;9.898;2024-03-17T02:35:23;6.00;99.90
40516;DHT22;26216;53.724;9.898;2024-03-17T02:37:49;6.00;99.90
40516;DHT22;26216;53.724;9.898;2024-03-17T02:40:15;6.00;99.90
40516;DHT22;26216;53.724;9.898;2024-03-17T02:42:42;5.90;99.90
40516;DHT22;26216;53.724;9.898;2024-03-17T02:45:11;5.90;99.90
40516;DHT22;26216;53.724;9.898;2024-03-17T02:47:38;5.80;99.90
40516;DHT22;26216;53.724;9.898;2024-03-17T02:50:04;5.80;99.90
40516;DHT22;26216;53.724;9.898;2024-03-17T02:52:30;5.80;99.90
40516;DHT22;26216;53.724;9.898;2024-03-17T02:54:56;5.70;99.90
40516;DHT22;26216;53.724;9.898;2024-03-17T02:57:23;5.70;99.90
40516;DHT22;26216;53.724;9.898;2024-03-17T02:59:55;5.60;99.90
40516;DHT22;26216;53.724;9.898;2024-03-17T03:02:21;5.50;99.90
40516;DHT22;26216;53.724;9.898;2024-03-17T03:04:47;5.50;99.90
40516;DHT22;26216;53.724;9.898;2024-03-17T03:07:12;5.50;99.90
40516;DHT22;26216;53.724;9.898;2024-03-17T03:09:38;5.40;99.90
40516;DHT22;26216;53.724;9.898;2024-03-17T03:12:04;5.40;99.90
40516;DHT22;26216;53.724;9.898;2024-03-17T03:14:31;5.40;99.90
40516;DHT22;26216;53.724;9.898;2024-03-17T03:16:57;5.30;99.90
40516;DHT22;26216;53.724;9.898;2024-03-17T03:19:26;5.30;99.90
40516;DHT22;26216;53.724;9.898;2024-03-17T03:21:51;5.30;99.90
40516;DHT22;26216;53.724;9.898;2024-03-17T03:24:17;5.20;99.90
40516;DHT22;26216;53.724;9.898;2024-03-17T03:26:43;5.20;99.90
40516;DHT22;26216;53.724;9.898;2024-03-17T03:29:28;5.20;99.90
40516;DHT22;26216;53.724;9.898;2024-03-17T03:31:53;5.10;99.90
40516;DHT22;26216;53.724;9.898;2024-03-17T03:34:19;5.10;99.90
40516;DHT22;26216;53.724;9.898;2024-03-17T03:36:45;5.10;99.90
40516;DHT22;26216;53.724;9.898;2024-03-17T03:39:11;5.10;99.90
40516;DHT22;26216;53.724;9.898;2024-03-17T03:41:38;5.10;99.90
40516;DHT22;26216;53.724;9.898;2024-03-17T03:44:04;5.10;99.90
40516;DHT22;26216;53.724;9.898;2024-03-17T03:46:29;5.10;99.90
40516;DHT22;26216;53.724;9.898;2024-03-17T03:48:56;5.10;99.90
40516;DHT22;26216;53.724;9.898;2024-03-17T03:51:21;5.10;99.90
40516;DHT22;26216;53.724;9.898;2024-03-17T03:53:47;5.10;99.90
40516;DHT22;26216;53.724;9.898;2024-03-17T03:56:13;5.10;99.90
40516;DHT22;26216;53.724;9.898;2024-03-17T03:58:41;5.20;99.90
40516;DHT22;26216;53.724;9.898;2024-03-17T04:01:09;5.20;99.90
40516;DHT22;26216;53.724;9.898;2024-03-17T04:03:37;5.20;99.90
40516;DHT22;26216;53.724;9.898;2024-03-17T04:06:04;5.30;99.90
40516;DHT22;26216;53.724;9.898;2024-03-17T04:08:34;5.30;99.90
40516;DHT22;26216;53.724;9.898;2024-03-17T04:11:01;5.30;99.90
40516;DHT22;26216;53.724;9.898;2024-03-17T04:13:28;5.40;99.90
40516;DHT22;26216;53.724;9.898;2024-03-17T04:15:57;5.40;99.90
40516;DHT22;26216;53.724;9.898;2024-03-17T04:18:25;5.40;99.90
40516;DHT22;26216;53.724;9.898;2024-03-17T04:20:55;5.40;99.90
40516;DHT22;26216;53.724;9.898;2024-03-17T04:23:22;5.50;99.90
40516;DHT22;26216;53.724;9.898;2024-03-17T04:25:50;5.50;99.90
40516;DHT22;26216;53.724;9.898;2024-03-17T04:28:16;5.50;99.90
40516;DHT22;26216;53.724;9.898;2024-03-17T04:30:42;5.50;99.90
40516;DHT22;26216;53.724;9.898;2024-03-17T04:33:11;5.50;99.90
40516;DHT22;26216;53.724;9.898;2024-03-17T04:35:38;5.60;99.90
40516;DHT22;26216;53.724;9.898;2024-03-17T04:38:04;5.60;99.90
40516;DHT22;26216;53.724;9.898;2024-03-17T04:40:34;5.60;99.90
40516;DHT22;26216;53.724;9.898;2024-03-17T04:43:01;5.70;99.90
40516;DHT22;26216;53.724;9.898;2024-03-17T04:45:27;5.60;99.90
40516;DHT22;26216;53.724;9.898;2024-03-17T04:47:53;5.60;99.90
40516;DHT22;26216;53.724;9.898;2024-03-17T04:50:18;5.60;99.90
40516;DHT22;26216;53.724;9.898;2024-03-17T04:52:44;5.60;99.90
40516;DHT22;26216;53.724;9.898;2024-03-17T04:55:10;5.70;99.90
40516;DHT22;26216;53.724;9.898;2024-03-17T04:57:36;5.60;99.90
40516;DHT22;26216;53.724;9.898;2024-03-17T05:00:03;5.60;99.90
40516;DHT22;26216;53.724;9.898;2024-03-17T05:02:32;5.60;99.90
40516;DHT22;26216;53.724;9.898;2024-03-17T05:04:59;5.60;99.90
40516;DHT22;26216;53.724;9.898;2024-03-17T05:07:24;5.60;99.90
40516;DHT22;26216;53.724;9.898;2024-03-17T05:09:50;5.50;99.90
40516;DHT22;26216;53.724;9.898;2024-03-17T05:12:16;5.50;99.90
40516;DHT22;26216;53.724;9.898;2024-03-17T05:14:42;5.40;99.90
40516;DHT22;26216;53.724;9.898;2024-03-17T05:17:08;5.40;99.90
40516;DHT22;26216;53.724;9.898;2024-03-17T05:19:34;5.40;99.90
40516;DHT22;26216;53.724;9.898;2024-03-17T05:21:59;5.30;99.90
40516;DHT22;26216;53.724;9.898;2024-03-17T05:24:25;5.30;99.90
40516;DHT22;26216;53.724;9.898;2024-03-17T05:26:51;5.20;99.90
40516;DHT22;26216;53.724;9.898;2024-03-17T05:29:17;5.20;99.90
40516;DHT22;26216;53.724;9.898;2024-03-17T05:31:43;5.10;99.90
40516;DHT22;26216;53.724;9.898;2024-03-17T05:34:09;5.10;99.90
40516;DHT22;26216;53.724;9.898;2024-03-17T05:36:36;5.10;99.90
40516;DHT22;26216;53.724;9.898;2024-03-17T05:39:03;5.00;99.90
40516;DHT22;26216;53.724;9.898;2024-03-17T05:41:29;5.00;99.90
40516;DHT22;26216;53.724;9.898;2024-03-17T05:43:54;5.00;99.90
40516;DHT22;26216;53.724;9.898;2024-03-17T05:46:25;4.90;99.90
40516;DHT22;26216;53.724;9.898;2024-03-17T05:48:54;4.90;99.90
40516;DHT22;26216;53.724;9.898;2024-03-17T05:51:20;4.90;99.90
40516;DHT22;26216;53.724;9.898;2024-03-17T05:53:46;4.90;99.90
40516;DHT22;26216;53.724;9.898;2024-03-17T05:56:12;4.80;99.90
40516;DHT22;26216;53.724;9.898;2024-03-17T05:58:38;4.80;99.90
40516;DHT22;26216;53.724;9.898;2024-03-17T06:01:05;4.80;99.90
40516;DHT22;26216;53.724;9.898;2024-03-17T06:03:33;4.80;99.90
40516;DHT22;26216;53.724;9.898;2024-03-17T06:06:02;4.70;99.90
40516;DHT22;26216;53.724;9.898;2024-03-17T06:08:29;4.70;99.90
40516;DHT22;26216;53.724;9.898;2024-03-17T06:10:55;4.70;99.90
40516;DHT22;26216;53.724;9.898;2024-03-17T06:13:28;4.70;99.90
40516;DHT22;26216;53.724;9.898;2024-03-17T06:15:55;4.70;99.90
40516;DHT22;26216;53.724;9.898;2024-03-17T06:18:26;4.70;99.90
40516;DHT22;26216;53.724;9.898;2024-03-17T06:20:55;4.70;99.90
40516;DHT22;26216;53.724;9.898;2024-03-17T06:23:24;4.70;99.90
40516;DHT22;26216;53.724;9.898;2024-03-17T06:25:52;4.70;99.90
40516;DHT22;26216;53.724;9.898;2024-03-17T06:28:19;4.70;99.90
40516;DHT22;26216;53.724;9.898;2024-03-17T06:30:54;4.70;99.90
40516;DHT22;26216;53.724;9.898;2024-03-17T06:33:20;4.70;99.90
40516;DHT22;26216;53.724;9.898;2024-03-17T06:35:47;4.80;99.90
40516;DHT22;26216;53.724;9.898;2024-03-17T06:38:14;4.80;99.90
40516;DHT22;26216;53.724;9.898;2024-03-17T06:40:41;4.80;99.90
40516;DHT22;26216;53.724;9.898;2024-03-17T06:43:08;4.80;99.90
40516;DHT22;26216;53.724;9.898;2024-03-17T06:45:34;4.90;99.90
40516;DHT22;26216;53.724;9.898;2024-03-17T06:48:09;4.90;99.90
40516;DHT22;26216;53.724;9.898;2024-03-17T06:50:38;4.90;99.90
40516;DHT22;26216;53.724;9.898;2024-03-17T06:53:07;4.90;99.90
40516;DHT22;26216;53.724;9.898;2024-03-17T06:55:34;5.00;99.90
40516;DHT22;26216;53.724;9.898;2024-03-17T06:58:00;5.00;99.90
40516;DHT22;26216;53.724;9.898;2024-03-17T07:00:26;5.10;99.90
40516;DHT22;26216;53.724;9.898;2024-03-17T07:02:52;5.20;99.90
40516;DHT22;26216;53.724;9.898;2024-03-17T07:05:17;5.20;99.90
40516;DHT22;26216;53.724;9.898;2024-03-17T07:07:44;5.20;99.90
40516;DHT22;26216;53.724;9.898;2024-03-17T07:10:11;5.30;99.90
40516;DHT22;26216;53.724;9.898;2024-03-17T07:12:40;5.40;99.90
40516;DHT22;26216;53.724;9.898;2024-03-17T07:15:07;5.40;99.90
40516;DHT22;26216;53.724;9.898;2024-03-17T07:17:34;5.50;99.90
40516;DHT22;26216;53.724;9.898;2024-03-17T07:20:00;5.50;99.90
40516;DHT22;26216;53.724;9.898;2024-03-17T07:22:26;5.60;99.90
40516;DHT22;26216;53.724;9.898;2024-03-17T07:24:53;5.60;99.90
40516;DHT22;26216;53.724;9.898;2024-03-17T07:27:27;5.70;99.90
40516;DHT22;26216;53.724;9.898;2024-03-17T07:29:52;5.70;99.90
40516;DHT22;26216;53.724;9.898;2024-03-17T07:32:18;5.80;99.90
40516;DHT22;26216;53.724;9.898;2024-03-17T07:34:44;5.90;99.90
40516;DHT22;26216;53.724;9.898;2024-03-17T07:37:10;5.90;99.90
40516;DHT22;26216;53.724;9.898;2024-03-17T07:39:36;6.00;99.90
40516;DHT22;26216;53.724;9.898;2024-03-17T07:42:02;6.00;99.90
40516;DHT22;26216;53.724;9.898;2024-03-17T07:44:28;6.10;99.90
40516;DHT22;26216;53.724;9.898;2024-03-17T07:47:03;6.20;99.90
40516;DHT22;26216;53.724;9.898;2024-03-17T07:49:32;6.30;99.90
40516;DHT22;26216;53.724;9.898;2024-03-17T07:51:58;6.30;99.90
40516;DHT22;26216;53.724;9.898;2024-03-17T07:54:25;6.50;99.90
40516;DHT22;26216;53.724;9.898;2024-03-17T07:56:52;6.50;99.90
40516;DHT22;26216;53.724;9.898;2024-03-17T07:59:18;6.60;99.90
40516;DHT22;26216;53.724;9.898;2024-03-17T08:01:44;6.70;99.90
40516;DHT22;26216;53.724;9.898;2024-03-17T08:04:10;6.80;99.90
40516;DHT22;26216;53.724;9.898;2024-03-17T08:06:38;6.90;99.90
40516;DHT22;26216;53.724;9.898;2024-03-17T08:09:04;7.00;99.90
40516;DHT22;26216;53.724;9.898;2024-03-17T08:11:30;7.10;99.90
40516;DHT22;26216;53.724;9.898;2024-03-17T08:13:56;7.20;99.90
40516;DHT22;26216;53.724;9.898;2024-03-17T08:16:22;7.30;99.90
40516;DHT22;26216;53.724;9.898;2024-03-17T08:18:48;7.40;99.90
40516;DHT22;26216;53.724;9.898;2024-03-17T08:21:14;7.40;99.90
40516;DHT22;26216;53.724;9.898;2024-03-17T08:23:40;7.50;99.90
40516;DHT22;26216;53.724;9.898;2024-03-17T08:26:08;7.70;99.90
40516;DHT22;26216;53.724;9.898;2024-03-17T08:28:34;7.80;99.90
40516;DHT22;26216;53.724;9.898;2024-03-17T08:31:04;7.80;99.90
40516;DHT22;26216;53.724;9.898;2024-03-17T08:33:31;7.90;99.90
40516;DHT22;26216;53.724;9.898;2024-03-17T08:35:59;8.00;99.90
40516;DHT22;26216;53.724;9.898;2024-03-17T08:38:27;8.10;99.90
40516;DHT22;26216;53.724;9.898;2024-03-17T08:40:54;8.20;99.90
40516;DHT22;26216;53.724;9.898;2024-03-17T08:43:21;8.30;99.90
40516;DHT22;26216;53.724;9.898;2024-03-17T08:45:59;8.40;99.90
40516;DHT22;26216;53.724;9.898;2024-03-17T08:48:28;8.50;99.90
40516;DHT22;26216;53.724;9.898;2024-03-17T08:50:58;8.60;99.90
40516;DHT22;26216;53.724;9.898;2024-03-17T08:53:24;8.70;99.90
40516;DHT22;26216;53.724;9.898;2024-03-17T08:55:51;8.80;99.90
40516;DHT22;26216;53.724;9.898;2024-03-17T08:58:17;8.90;99.90
40516;DHT22;26216;53.724;9.898;2024-03-17T09:00:43;9.00;99.90
40516;DHT22;26216;53.724;9.898;2024-03-17T09:03:10;9.10;99.90
40516;DHT22;26216;53.724;9.898;2024-03-17T09:05:37;9.20;99.90
40516;DHT22;26216;53.724;9.898;2024-03-17T09:08:03;9.30;99.90
40516;DHT22;26216;53.724;9.898;2024-03-17T09:10:32;9.40;99.90
40516;DHT22;26216;53.724;9.898;2024-03-17T09:12:58;9.50;99.90
40516;DHT22;26216;53.724;9.898;2024-03-17T09:15:26;9.50;99.90
40516;DHT22;26216;53.724;9.898;2024-03-17T09:17:52;9.60;99.90
40516;DHT22;26216;53.724;9.898;2024-03-17T09:20:18;9.70;99.90
40516;DHT22;26216;53.724;9.898;2024-03-17T09:22:44;9.80;99.90
40516;DHT22;26216;53.724;9.898;2024-03-17T09:25:10;9.80;99.90
40516;DHT22;26216;53.724;9.898;2024-03-17T09:27:36;9.80;99.90
40516;DHT22;26216;53.724;9.898;2024-03-17T09:30:04;9.80;99.90
40516;DHT22;26216;53.724;9.898;2024-03-17T09:32:32;9.80;99.90
40516;DHT22;26216;53.724;9.898;2024-03-17T09:34:58;9.80;99.90
40516;DHT22;26216;53.724;9.898;2024-03-17T09:37:25;9.80;99.90
40516;DHT22;26216;53.724;9.898;2024-03-17T09:39:51;9.90;99.90
40516;DHT22;26216;53.724;9.898;2024-03-17T09:42:18;9.90;99.90
40516;DHT22;26216;53.724;9.898;2024-03-17T09:44:48;10.00;99.90
40516;DHT22;26216;53.724;9.898;2024-03-17T09:47:21;10.00;99.90
40516;DHT22;26216;53.724;9.898;2024-03-17T09:49:48;10.10;99.90
40516;DHT22;26216;53.724;9.898;2024-03-17T09:52:25;10.10;99.90
40516;DHT22;26216;53.724;9.898;2024-03-17T09:54:59;10.10;99.90
40516;DHT22;26216;53.724;9.898;2024-03-17T09:57:27;10.10;99.90
40516;DHT22;26216;53.724;9.898;2024-03-17T09:59:55;10.10;99.90
40516;DHT22;26216;53.724;9.898;2024-03-17T10:02:21;10.10;99.90
40516;DHT22;26216;53.724;9.898;2024-03-17T10:04:51;10.10;99.90
40516;DHT22;26216;53.724;9.898;2024-03-17T10:07:18;10.10;99.90
40516;DHT22;26216;53.724;9.898;2024-03-17T10:09:44;10.10;99.90
40516;DHT22;26216;53.724;9.898;2024-03-17T10:12:28;10.00;99.90
40516;DHT22;26216;53.724;9.898;2024-03-17T10:15:01;10.00;99.90
40516;DHT22;26216;53.724;9.898;2024-03-17T10:17:31;10.00;99.90
40516;DHT22;26216;53.724;9.898;2024-03-17T10:20:18;10.00;99.90
40516;DHT22;26216;53.724;9.898;2024-03-17T10:23:03;9.90;99.90
40516;DHT22;26216;53.724;9.898;2024-03-17T10:25:34;9.90;99.90
40516;DHT22;26216;53.724;9.898;2024-03-17T10:28:01;9.90;99.90
40516;DHT22;26216;53.724;9.898;2024-03-17T10:30:28;9.90;99.90
40516;DHT22;26216;53.724;9.898;2024-03-17T10:32:58;10.00;99.90
40516;DHT22;26216;53.724;9.898;2024-03-17T10:35:35;10.10;99.90
40516;DHT22;26216;53.724;9.898;2024-03-17T10:38:05;10.20;99.90
40516;DHT22;26216;53.724;9.898;2024-03-17T10:40:32;10.30;99.90
40516;DHT22;26216;53.724;9.898;2024-03-17T10:43:02;10.40;99.90
40516;DHT22;26216;53.724;9.898;2024-03-17T10:45:28;10.50;99.90
40516;DHT22;26216;53.724;9.898;2024-03-17T10:48:02;10.60;99.90
40516;DHT22;26216;53.724;9.898;2024-03-17T10:50:38;10.80;99.90
40516;DHT22;26216;53.724;9.898;2024-03-17T10:53:05;10.90;99.90
40516;DHT22;26216;53.724;9.898;2024-03-17T10:55:44;11.00;99.90
40516;DHT22;26216;53.724;9.898;2024-03-17T10:58:23;11.10;99.90
40516;DHT22;26216;53.724;9.898;2024-03-17T11:00:52;11.20;99.90
40516;DHT22;26216;53.724;9.898;2024-03-17T11:03:19;11.40;99.90
40516;DHT22;26216;53.724;9.898;2024-03-17T11:05:48;11.40;99.90
40516;DHT22;26216;53.724;9.898;2024-03-17T11:08:16;11.60;99.90
40516;DHT22;26216;53.724;9.898;2024-03-17T11:10:50;11.70;99.90
40516;DHT22;26216;53.724;9.898;2024-03-17T11:13:29;11.80;99.90
40516;DHT22;26216;53.724;9.898;2024-03-17T11:15:57;11.80;99.90
40516;DHT22;26216;53.724;9.898;2024-03-17T11:18:35;11.80;99.90
40516;DHT22;26216;53.724;9.898;2024-03-17T11:21:21;11.90;99.90
40516;DHT22;26216;53.724;9.898;2024-03-17T11:24:01;11.90;99.90
40516;DHT22;26216;53.724;9.898;2024-03-17T11:26:30;12.00;99.90
40516;DHT22;26216;53.724;9.898;2024-03-17T11:28:56;12.00;99.90
40516;DHT22;26216;53.724;9.898;2024-03-17T11:31:40;12.00;99.90
40516;DHT22;26216;53.724;9.898;2024-03-17T11:34:26;12.10;99.90
40516;DHT22;26216;53.724;9.898;2024-03-17T11:36:52;12.20;99.90
40516;DHT22;26216;53.724;9.898;2024-03-17T11:39:48;12.20;99.90
40516;DHT22;26216;53.724;9.898;2024-03-17T11:42:22;12.30;99.90
40516;DHT22;26216;53.724;9.898;2024-03-17T11:45:06;12.40;99.90
40516;DHT22;26216;53.724;9.898;2024-03-17T11:47:42;12.40;99.90
40516;DHT22;26216;53.724;9.898;2024-03-17T11:50:10;12.50;99.90
40516;DHT22;26216;53.724;9.898;2024-03-17T11:52:37;12.50;99.90
40516;DHT22;26216;53.724;9.898;2024-03-17T11:55:03;12.60;99.90
40516;DHT22;26216;53.724;9.898;2024-03-17T11:57:29;12.60;99.90
40516;DHT22;26216;53.724;9.898;2024-03-17T11:59:56;12.60;99.90
40516;DHT22;26216;53.724;9.898;2024-03-17T12:02:24;12.60;99.90
40516;DHT22;26216;53.724;9.898;2024-03-17T12:04:52;12.60;99.90
40516;DHT22;26216;53.724;9.898;2024-03-17T12:07:20;12.60;99.90
40516;DHT22;26216;53.724;9.898;2024-03-17T12:09:47;12.70;99.90
40516;DHT22;26216;53.724;9.898;2024-03-17T12:12:26;12.70;99.90
40516;DHT22;26216;53.724;9.898;2024-03-17T12:15:02;12.70;99.90
40516;DHT22;26216;53.724;9.898;2024-03-17T12:17:29;12.80;99.90
40516;DHT22;26216;53.724;9.898;2024-03-17T12:19:55;12.80;99.90
40516;DHT22;26216;53.724;9.898;2024-03-17T12:22:24;12.80;99.90
40516;DHT22;26216;53.724;9.898;2024-03-17T12:24:54;12.80;99.90
40516;DHT22;26216;53.724;9.898;2024-03-17T12:27:22;12.90;99.90
40516;DHT22;26216;53.724;9.898;2024-03-17T12:29:50;12.90;99.90
40516;DHT22;26216;53.724;9.898;2024-03-17T12:32:21;12.90;99.90
40516;DHT22;26216;53.724;9.898;2024-03-17T12:34:51;12.90;99.90
40516;DHT22;26216;53.724;9.898;2024-03-17T12:37:22;12.90;99.90
40516;DHT22;26216;53.724;9.898;2024-03-17T12:39:51;12.90;99.90
40516;DHT22;26216;53.724;9.898;2024-03-17T12:42:27;12.90;99.90
40516;DHT22;26216;53.724;9.898;2024-03-17T12:44:58;12.90;99.90
40516;DHT22;26216;53.724;9.898;2024-03-17T12:47:28;12.90;99.90
40516;DHT22;26216;53.724;9.898;2024-03-17T12:49:57;12.90;99.90
40516;DHT22;26216;53.724;9.898;2024-03-17T12:52:31;12.90;99.90
40516;DHT22;26216;53.724;9.898;2024-03-17T12:55:08;13.00;99.90
40516;DHT22;26216;53.724;9.898;2024-03-17T13:00:46;13.00;99.90
40516;DHT22;26216;53.724;9.898;2024-03-17T13:03:25;13.10;99.90
40516;DHT22;26216;53.724;9.898;2024-03-17T13:05:51;13.10;99.90
40516;DHT22;26216;53.724;9.898;2024-03-17T13:08:18;13.10;99.90
40516;DHT22;26216;53.724;9.898;2024-03-17T13:10:44;13.10;99.90
40516;DHT22;26216;53.724;9.898;2024-03-17T13:13:12;13.10;99.90
40516;DHT22;26216;53.724;9.898;2024-03-17T13:15:42;13.10;99.90
40516;DHT22;26216;53.724;9.898;2024-03-17T13:18:11;13.10;99.90
40516;DHT22;26216;53.724;9.898;2024-03-17T13:20:41;13.20;99.90
40516;DHT22;26216;53.724;9.898;2024-03-17T13:23:07;13.20;99.90
40516;DHT22;26216;53.724;9.898;2024-03-17T13:25:34;13.10;99.90
40516;DHT22;26216;53.724;9.898;2024-03-17T13:28:06;13.10;99.90
40516;DHT22;26216;53.724;9.898;2024-03-17T13:30:36;13.10;99.60
40516;DHT22;26216;53.724;9.898;2024-03-17T13:33:03;13.10;99.90
40516;DHT22;26216;53.724;9.898;2024-03-17T13:35:38;13.00;99.90
40516;DHT22;26216;53.724;9.898;2024-03-17T13:38:08;13.00;99.90
40516;DHT22;26216;53.724;9.898;2024-03-17T13:40:38;13.00;99.90
40516;DHT22;26216;53.724;9.898;2024-03-17T13:43:05;13.00;99.90
40516;DHT22;26216;53.724;9.898;2024-03-17T13:45:38;12.90;99.90
40516;DHT22;26216;53.724;9.898;2024-03-17T13:48:05;12.90;99.90
40516;DHT22;26216;53.724;9.898;2024-03-17T13:50:31;12.90;99.90
40516;DHT22;26216;53.724;9.898;2024-03-17T13:52:58;12.90;99.90
40516;DHT22;26216;53.724;9.898;2024-03-17T13:55:25;12.90;99.90
40516;DHT22;26216;53.724;9.898;2024-03-17T13:57:53;12.90;99.90
40516;DHT22;26216;53.724;9.898;2024-03-17T14:00:27;13.00;99.90
40516;DHT22;26216;53.724;9.898;2024-03-17T14:02:54;13.00;99.90
40516;DHT22;26216;53.724;9.898;2024-03-17T14:05:23;13.10;99.90
40516;DHT22;26216;53.724;9.898;2024-03-17T14:07:51;13.10;99.90
40516;DHT22;26216;53.724;9.898;2024-03-17T14:10:22;13.20;99.90
40516;DHT22;26216;53.724;9.898;2024-03-17T14:12:49;13.20;99.90
40516;DHT22;26216;53.724;9.898;2024-03-17T14:15:16;13.20;99.90
40516;DHT22;26216;53.724;9.898;2024-03-17T14:17:44;13.20;99.90
40516;DHT22;26216;53.724;9.898;2024-03-17T14:20:12;13.30;99.90
40516;DHT22;26216;53.724;9.898;2024-03-17T14:22:41;13.30;99.90
40516;DHT22;26216;53.724;9.898;2024-03-17T14:25:09;13.30;99.80
40516;DHT22;26216;53.724;9.898;2024-03-17T14:27:38;13.30;99.90
40516;DHT22;26216;53.724;9.898;2024-03-17T14:30:05;13.30;99.90
40516;DHT22;26216;53.724;9.898;2024-03-17T14:32:32;13.30;99.90
40516;DHT22;26216;53.724;9.898;2024-03-17T14:34:58;13.40;99.90
40516;DHT22;26216;53.724;9.898;2024-03-17T14:37:25;13.40;99.30
40516;DHT22;26216;53.724;9.898;2024-03-17T14:39:52;13.40;99.80
40516;DHT22;26216;53.724;9.898;2024-03-17T14:42:21;13.40;98.80
40516;DHT22;26216;53.724;9.898;2024-03-17T14:44:48;13.40;99.60
40516;DHT22;26216;53.724;9.898;2024-03-17T14:47:15;13.40;98.80
40516;DHT22;26216;53.724;9.898;2024-03-17T14:49:42;13.40;99.20
40516;DHT22;26216;53.724;9.898;2024-03-17T14:52:09;13.40;99.00
40516;DHT22;26216;53.724;9.898;2024-03-17T14:54:35;13.40;98.60
40516;DHT22;26216;53.724;9.898;2024-03-17T14:57:02;13.50;98.80
40516;DHT22;26216;53.724;9.898;2024-03-17T14:59:28;13.50;98.50
40516;DHT22;26216;53.724;9.898;2024-03-17T15:01:55;13.50;98.80
40516;DHT22;26216;53.724;9.898;2024-03-17T15:04:21;13.50;98.90
40516;DHT22;26216;53.724;9.898;2024-03-17T15:06:47;13.50;99.20
40516;DHT22;26216;53.724;9.898;2024-03-17T15:09:13;13.60;99.60
40516;DHT22;26216;53.724;9.898;2024-03-17T15:11:45;13.60;99.00
40516;DHT22;26216;53.724;9.898;2024-03-17T15:14:24;13.70;99.50
40516;DHT22;26216;53.724;9.898;2024-03-17T15:16:52;13.70;98.90
40516;DHT22;26216;53.724;9.898;2024-03-17T15:19:18;13.70;99.40
40516;DHT22;26216;53.724;9.898;2024-03-17T15:21:45;13.80;99.30
40516;DHT22;26216;53.724;9.898;2024-03-17T15:24:11;13.80;99.20
40516;DHT22;26216;53.724;9.898;2024-03-17T15:26:36;13.80;99.60
40516;DHT22;26216;53.724;9.898;2024-03-17T15:29:04;13.80;98.50
40516;DHT22;26216;53.724;9.898;2024-03-17T15:31:33;13.80;98.90
40516;DHT22;26216;53.724;9.898;2024-03-17T15:33:59;13.80;98.80
40516;DHT22;26216;53.724;9.898;2024-03-17T15:36:26;13.80;98.70
40516;DHT22;26216;53.724;9.898;2024-03-17T15:38:55;13.80;98.40
40516;DHT22;26216;53.724;9.898;2024-03-17T15:41:22;13.80;97.60
40516;DHT22;26216;53.724;9.898;2024-03-17T15:43:49;13.80;97.90
40516;DHT22;26216;53.724;9.898;2024-03-17T15:46:18;13.80;97.10
40516;DHT22;26216;53.724;9.898;2024-03-17T15:48:45;13.70;97.10
40516;DHT22;26216;53.724;9.898;2024-03-17T15:51:18;13.70;97.10
40516;DHT22;26216;53.724;9.898;2024-03-17T15:53:47;13.60;96.60